createdAt,value
2019-04-04T00:01:47.728Z,70.63
2019-04-04T00:04:17.316Z,70.76
2019-04-04T00:06:46.956Z,71.36
2019-04-04T00:09:16.853Z,72.88
2019-04-04T00:11:46.758Z,73.25
2019-04-04T00:14:16.440Z,72.83
2019-04-04T00:16:46.789Z,73.56
2019-04-04T00:19:17.633Z,74.12
2019-04-04T00:21:47.484Z,73.67
2019-04-04T00:24:17.210Z,73.99
2019-04-04T00:26:46.998Z,74.54
2019-04-04T00:29:17.306Z,74.77
2019-04-04T00:31:49.829Z,74.69
2019-04-04T00:34:20.223Z,74.04
2019-04-04T00:36:49.987Z,73.79
2019-04-04T00:39:19.698Z,74.11
2019-04-04T00:41:49.635Z,74.16
2019-04-04T00:44:21.037Z,73.91
2019-04-04T00:46:50.820Z,73.63
2019-04-04T00:49:20.569Z,74.00
2019-04-04T00:51:50.301Z,74.12
2019-04-04T00:54:20.115Z,73.59
2019-04-04T00:56:49.990Z,74.51
2019-04-04T00:59:22.630Z,74.57
2019-04-04T01:01:51.363Z,75.53
2019-04-04T01:04:21.194Z,75.35
2019-04-04T01:06:51.160Z,74.86
2019-04-04T01:09:21.040Z,73.71
2019-04-04T01:11:51.264Z,73.15
2019-04-04T01:14:22.907Z,73.98
2019-04-04T01:16:52.735Z,74.42
2019-04-04T01:19:22.492Z,76.00
2019-04-04T01:21:53.446Z,76.26
2019-04-04T01:24:23.709Z,76.17
2019-04-04T01:26:53.457Z,75.97
2019-04-04T01:29:23.207Z,75.86
2019-04-04T01:31:52.947Z,76.18
2019-04-04T01:37:58.225Z,76.39
2019-04-04T01:40:32.780Z,76.12
2019-04-04T01:43:00.978Z,75.53
2019-04-04T01:45:31.434Z,75.37
2019-04-04T01:48:01.116Z,74.65
2019-04-04T01:50:30.957Z,74.41
2019-04-04T01:53:00.710Z,74.94
2019-04-04T01:55:30.488Z,74.81
2019-04-04T01:58:00.202Z,74.38
2019-04-04T02:00:29.987Z,74.43
2019-04-04T02:03:03.345Z,73.91
2019-04-04T02:05:33.366Z,74.04
2019-04-04T02:08:04.390Z,74.04
2019-04-04T02:10:34.929Z,74.20
2019-04-04T02:13:05.814Z,74.41
2019-04-04T02:15:35.603Z,74.48
2019-04-04T02:18:05.386Z,74.54
2019-04-04T02:20:35.132Z,74.73
2019-04-04T02:23:05.339Z,74.68
2019-04-04T02:25:35.325Z,74.89
2019-04-04T02:28:06.917Z,74.93
2019-04-04T02:30:40.017Z,74.77
2019-04-04T02:33:14.051Z,74.77
2019-04-04T02:35:44.068Z,74.58
2019-04-04T02:38:13.847Z,74.70
2019-04-04T02:40:43.772Z,74.85
2019-04-04T02:43:13.685Z,75.21
2019-04-04T02:45:43.793Z,75.32
2019-04-04T02:48:13.589Z,75.31
2019-04-04T02:50:45.163Z,75.74
2019-04-04T02:53:19.227Z,75.83
2019-04-04T02:55:46.997Z,75.75
2019-04-04T02:58:18.514Z,76.09
2019-04-04T03:00:48.801Z,76.32
2019-04-04T03:03:18.680Z,76.72
2019-04-04T03:05:51.972Z,76.78
2019-04-04T03:08:20.357Z,76.87
2019-04-04T03:10:50.182Z,76.89
2019-04-04T03:13:20.169Z,77.23
2019-04-04T03:15:50.009Z,77.05
2019-04-04T03:18:19.717Z,76.99
2019-04-04T03:20:50.682Z,76.83
2019-04-04T03:23:20.785Z,76.76
2019-04-04T03:25:50.466Z,76.79
2019-04-04T03:28:20.195Z,77.11
2019-04-04T03:31:00.905Z,76.95
2019-04-04T03:33:29.213Z,76.80
2019-04-04T03:35:53.397Z,76.56
2019-04-04T03:38:23.122Z,76.85
2019-04-04T03:40:57.492Z,76.86
2019-04-04T03:43:24.602Z,77.33
2019-04-04T03:45:54.413Z,77.21
2019-04-04T03:48:25.515Z,77.31
2019-04-04T03:50:57.390Z,77.33
2019-04-04T03:53:26.966Z,77.22
2019-04-04T03:56:00.183Z,77.15
2019-04-04T03:58:28.507Z,76.99
2019-04-04T04:00:58.314Z,77.13
2019-04-04T04:03:29.071Z,76.87
2019-04-04T04:05:58.978Z,76.90
2019-04-04T04:08:29.065Z,76.83
2019-04-04T04:10:58.799Z,76.92
2019-04-04T04:13:28.595Z,76.64
2019-04-04T04:16:02.699Z,76.64
2019-04-04T04:18:29.818Z,76.42
2019-04-04T04:20:59.517Z,76.47
2019-04-04T04:23:29.278Z,76.21
2019-04-04T04:25:58.907Z,76.55
2019-04-04T04:28:28.780Z,76.40
2019-04-04T04:30:58.742Z,76.51
2019-04-04T04:33:29.943Z,76.91
2019-04-04T04:36:00.116Z,76.16
2019-04-04T04:38:30.208Z,76.24
2019-04-04T04:41:00.000Z,76.21
2019-04-04T04:43:33.444Z,76.12
2019-04-04T04:46:01.940Z,75.78
2019-04-04T04:48:32.027Z,76.06
2019-04-04T04:51:02.786Z,76.09
2019-04-04T04:53:33.468Z,75.49
2019-04-04T04:56:03.403Z,75.65
2019-04-04T04:58:33.096Z,75.47
2019-04-04T05:01:03.522Z,75.64
2019-04-04T05:03:33.314Z,76.03
2019-04-04T05:06:03.455Z,75.75
2019-04-04T05:08:33.277Z,75.39
2019-04-04T05:11:03.189Z,75.31
2019-04-04T05:13:33.000Z,74.57
2019-04-04T05:16:04.796Z,74.34
2019-04-04T05:18:34.198Z,74.57
2019-04-04T05:21:03.998Z,74.87
2019-04-04T05:23:33.801Z,75.26
2019-04-04T05:26:03.478Z,75.97
2019-04-04T05:28:33.250Z,76.65
2019-04-04T05:31:02.941Z,76.50
2019-04-04T05:33:32.751Z,76.84
2019-04-04T05:36:04.851Z,76.43
2019-04-04T05:38:33.898Z,76.49
2019-04-04T05:41:04.045Z,76.49
2019-04-04T05:43:35.279Z,76.62
2019-04-04T05:46:06.257Z,76.73
2019-04-04T05:48:35.949Z,76.45
2019-04-04T05:51:05.801Z,75.43
2019-04-04T05:53:36.056Z,75.84
2019-04-04T05:56:06.639Z,75.92
2019-04-04T05:58:36.487Z,75.85
2019-04-04T06:01:07.239Z,75.75
2019-04-04T06:03:36.969Z,75.41
2019-04-04T06:06:06.852Z,74.87
2019-04-04T06:08:38.794Z,75.24
2019-04-04T06:11:08.162Z,74.69
2019-04-04T06:13:38.026Z,75.03
2019-04-04T06:16:07.733Z,74.77
2019-04-04T06:18:37.592Z,74.61
2019-04-04T06:21:07.366Z,74.75
2019-04-04T06:23:37.210Z,74.88
2019-04-04T06:26:07.718Z,74.76
2019-04-04T06:28:37.485Z,73.84
2019-04-04T06:31:07.232Z,73.78
2019-04-04T06:33:36.920Z,73.49
2019-04-04T06:36:06.840Z,73.02
2019-04-04T06:38:36.562Z,72.76
2019-04-04T06:41:06.486Z,71.92
2019-04-04T06:43:37.197Z,72.50
2019-04-04T06:46:06.954Z,72.87
2019-04-04T06:48:38.644Z,72.97
2019-04-04T06:51:08.593Z,72.75
2019-04-04T06:53:38.299Z,72.61
2019-04-04T06:56:08.006Z,72.30
2019-04-04T06:58:40.036Z,72.57
2019-04-04T07:01:11.100Z,72.59
2019-04-04T07:03:40.902Z,73.23
2019-04-04T07:06:10.906Z,72.28
2019-04-04T07:08:41.084Z,71.98
2019-04-04T07:11:20.937Z,72.37
2019-04-04T07:13:43.027Z,70.62
2019-04-04T07:16:12.895Z,70.39
2019-04-04T07:18:43.000Z,69.88
2019-04-04T07:21:13.558Z,70.21
2019-04-04T07:23:43.437Z,70.06
2019-04-04T07:26:14.912Z,70.73
2019-04-04T07:28:44.711Z,70.01
2019-04-04T07:31:15.973Z,70.65
2019-04-04T07:33:45.970Z,69.99
2019-04-04T07:36:15.726Z,68.75
2019-04-04T07:38:45.549Z,68.12
2019-04-04T07:41:15.353Z,68.31
2019-04-04T07:43:45.030Z,67.94
2019-04-04T07:46:16.870Z,67.43
2019-04-04T07:48:46.476Z,66.03
2019-04-04T07:51:16.204Z,66.02
2019-04-04T07:53:46.021Z,66.46
2019-04-04T07:56:15.819Z,66.14
2019-04-04T07:58:45.488Z,65.68
2019-04-04T08:01:15.164Z,65.74
2019-04-04T08:03:44.869Z,66.50
2019-04-04T08:06:14.706Z,66.11
2019-04-04T08:08:44.482Z,67.13
2019-04-04T08:11:14.537Z,68.22
2019-04-04T08:13:44.306Z,68.81
2019-04-04T08:16:14.125Z,68.19
2019-04-04T08:18:43.888Z,68.19
2019-04-04T08:21:13.640Z,68.02
2019-04-04T08:23:43.375Z,68.16
2019-04-04T08:26:13.090Z,68.24
2019-04-04T08:28:42.820Z,68.79
2019-04-04T08:31:12.544Z,68.82
2019-04-04T08:33:42.284Z,68.69
2019-04-04T08:36:12.108Z,68.52
2019-04-04T08:38:41.937Z,68.02
2019-04-04T08:41:12.036Z,68.50
2019-04-04T08:43:41.795Z,67.92
2019-04-04T08:46:11.504Z,68.22
2019-04-04T08:48:41.263Z,68.70
2019-04-04T08:51:11.072Z,69.00
2019-04-04T08:53:40.837Z,68.87
2019-04-04T08:56:10.662Z,69.10
2019-04-04T08:58:40.354Z,68.25
2019-04-04T09:01:10.109Z,67.93
2019-04-04T09:03:39.780Z,68.09
2019-04-04T09:06:09.488Z,68.55
2019-04-04T09:08:39.270Z,68.29
2019-04-04T09:11:10.199Z,68.11
2019-04-04T09:13:39.952Z,67.62
2019-04-04T09:16:09.896Z,67.34
2019-04-04T09:18:40.700Z,68.10
2019-04-04T09:21:10.454Z,67.96
2019-04-04T09:23:40.168Z,66.96
2019-04-04T09:26:09.969Z,65.97
2019-04-04T09:28:40.118Z,65.98
2019-04-04T09:31:09.981Z,65.63
2019-04-04T09:33:39.686Z,65.28
2019-04-04T09:36:09.793Z,65.61
2019-04-04T09:38:39.559Z,64.61
2019-04-04T09:41:09.528Z,65.83
2019-04-04T09:43:39.413Z,65.12
2019-04-04T09:46:09.396Z,65.79
2019-04-04T09:48:39.162Z,66.43
2019-04-04T09:51:09.052Z,65.11
2019-04-04T09:53:52.414Z,65.81
2019-04-04T09:56:11.383Z,65.46
2019-04-04T09:58:41.077Z,65.46
2019-04-04T10:01:10.976Z,65.35
2019-04-04T10:03:40.893Z,66.00
2019-04-04T10:06:10.664Z,66.08
2019-04-04T10:08:40.616Z,65.92
2019-04-04T10:11:10.384Z,66.24
2019-04-04T10:13:40.053Z,66.92
2019-04-04T10:16:09.820Z,67.83
2019-04-04T10:18:39.525Z,67.44
2019-04-04T10:21:12.266Z,67.83
2019-04-04T10:23:40.954Z,65.46
2019-04-04T10:26:11.080Z,66.24
2019-04-04T10:28:40.976Z,66.32
2019-04-04T10:31:10.792Z,65.54
2019-04-04T10:33:42.204Z,63.61
2019-04-04T10:36:12.217Z,63.40
2019-04-04T10:38:41.996Z,63.30
2019-04-04T10:41:12.043Z,64.43
2019-04-04T10:43:41.976Z,63.60
2019-04-04T10:46:11.765Z,64.67
2019-04-04T10:48:41.540Z,64.01
2019-04-04T10:51:11.477Z,62.34
2019-04-04T10:53:41.234Z,61.08
2019-04-04T10:56:10.990Z,60.41
2019-04-04T10:58:40.684Z,59.46
2019-04-04T11:01:10.487Z,59.44
2019-04-04T11:03:40.186Z,59.75
2019-04-04T11:06:09.915Z,58.69
2019-04-04T11:08:39.613Z,58.27
2019-04-04T11:11:09.521Z,57.96
2019-04-04T11:13:39.292Z,55.85
2019-04-04T11:16:09.004Z,57.30
2019-04-04T11:18:38.689Z,57.78
2019-04-04T11:21:08.513Z,58.43
2019-04-04T11:23:38.285Z,58.59
2019-04-04T11:26:08.168Z,58.83
2019-04-04T11:28:37.849Z,58.49
2019-04-04T11:31:07.573Z,55.72
2019-04-04T11:33:37.274Z,55.26
2019-04-04T11:36:07.233Z,52.22
2019-04-04T11:38:36.954Z,48.61
2019-04-04T11:41:06.730Z,46.00
2019-04-04T11:43:36.438Z,46.60
2019-04-04T11:46:06.221Z,47.05
2019-04-04T11:48:36.063Z,47.30
2019-04-04T11:51:06.266Z,44.81
2019-04-04T11:53:36.073Z,43.97
2019-04-04T11:56:06.064Z,44.01
2019-04-04T11:58:36.367Z,45.36
2019-04-04T12:01:08.304Z,44.31
2019-04-04T12:03:38.015Z,42.89
2019-04-04T12:06:08.685Z,42.67
2019-04-04T12:08:38.366Z,43.04
2019-04-04T12:11:08.410Z,44.60
2019-04-04T12:13:38.162Z,44.27
2019-04-04T12:16:08.069Z,43.92
2019-04-04T12:18:37.878Z,44.82
2019-04-04T12:21:07.579Z,44.37
2019-04-04T12:23:37.293Z,43.14
2019-04-04T12:26:07.004Z,42.19
2019-04-04T12:28:36.707Z,41.65
2019-04-04T12:31:06.507Z,42.58
2019-04-04T12:33:36.252Z,42.33
2019-04-04T12:36:06.789Z,41.76
2019-04-04T12:38:36.471Z,40.82
2019-04-04T12:41:06.217Z,40.82
2019-04-04T12:43:36.009Z,41.04
2019-04-04T12:46:06.002Z,41.90
2019-04-04T12:48:35.680Z,41.79
2019-04-04T12:51:05.748Z,41.79
2019-04-04T12:53:35.536Z,42.81
2019-04-04T12:56:05.373Z,42.09
2019-04-04T12:58:35.073Z,43.49
2019-04-04T13:01:04.838Z,45.85
2019-04-04T13:03:34.533Z,45.06
2019-04-04T13:06:04.302Z,45.17
2019-04-04T13:08:34.107Z,44.99
2019-04-04T13:11:06.384Z,45.38
2019-04-04T13:13:38.207Z,46.78
2019-04-04T13:16:08.283Z,47.55
2019-04-04T13:18:38.023Z,48.35
2019-04-04T13:21:08.918Z,48.85
2019-04-04T13:23:38.753Z,49.91
2019-04-04T13:26:08.514Z,51.46
2019-04-04T13:28:38.284Z,52.37
2019-04-04T13:31:07.997Z,52.52
2019-04-04T13:33:37.758Z,52.55
2019-04-04T13:36:07.534Z,54.31
2019-04-04T13:38:37.418Z,53.20
2019-04-04T13:41:07.154Z,53.72
2019-04-04T13:43:36.880Z,52.69
2019-04-04T13:46:06.700Z,53.95
2019-04-04T13:48:37.515Z,54.32
2019-04-04T13:51:07.687Z,53.66
2019-04-04T13:53:37.430Z,53.49
2019-04-04T13:56:07.369Z,53.43
2019-04-04T13:58:37.152Z,52.09
2019-04-04T14:01:08.024Z,52.34
2019-04-04T14:03:37.780Z,53.00
2019-04-04T14:06:07.464Z,53.35
2019-04-04T14:08:39.400Z,53.17
2019-04-04T14:11:08.593Z,53.45
2019-04-04T14:13:38.284Z,52.65
2019-04-04T14:16:08.051Z,53.94
2019-04-04T14:18:39.933Z,53.33
2019-04-04T14:21:09.364Z,53.60
2019-04-04T14:23:39.131Z,53.12
2019-04-04T14:26:08.906Z,53.11
2019-04-04T14:28:38.637Z,54.02
2019-04-04T14:31:08.321Z,55.17
2019-04-04T14:33:38.138Z,55.51
2019-04-04T14:36:07.895Z,55.24
2019-04-04T14:38:37.718Z,55.01
2019-04-04T14:41:11.403Z,56.45
2019-04-04T14:43:40.125Z,55.40
2019-04-04T14:46:10.084Z,54.92
2019-04-04T14:48:42.147Z,54.99
2019-04-04T14:51:11.564Z,54.88
2019-04-04T14:53:41.346Z,54.71
2019-04-04T14:56:11.107Z,54.17
2019-04-04T14:58:40.823Z,54.36
2019-04-04T15:01:11.758Z,54.56
2019-04-04T15:03:42.326Z,55.75
2019-04-04T15:06:12.663Z,54.99
2019-04-04T15:08:42.428Z,54.62
2019-04-04T15:11:23.499Z,54.67
2019-04-04T15:13:43.612Z,54.74
2019-04-04T15:16:18.361Z,54.81
2019-04-04T15:18:48.107Z,55.47
2019-04-04T15:21:17.874Z,55.09
2019-04-04T15:23:47.782Z,54.59
2019-04-04T15:26:17.558Z,54.13
2019-04-04T15:28:47.262Z,54.62
2019-04-04T15:31:17.523Z,54.89
2019-04-04T15:33:50.256Z,54.73
2019-04-04T15:36:18.791Z,55.27
2019-04-04T15:38:48.491Z,55.46
2019-04-04T15:41:18.218Z,55.43
2019-04-04T15:43:48.061Z,55.65
2019-04-04T15:46:17.874Z,55.83
2019-04-04T15:48:47.596Z,55.82
2019-04-04T15:51:17.312Z,55.97
2019-04-04T15:53:47.064Z,56.81
2019-04-04T15:56:16.793Z,57.50
2019-04-04T15:58:46.522Z,57.66
2019-04-04T16:01:16.282Z,58.04
2019-04-04T16:03:46.009Z,58.44
2019-04-04T16:06:15.770Z,57.73
2019-04-04T16:08:45.515Z,57.56
2019-04-04T16:11:15.182Z,57.13
2019-04-04T16:13:44.940Z,57.23
2019-04-04T16:16:14.622Z,57.30
2019-04-04T16:18:44.433Z,57.80
2019-04-04T16:21:14.112Z,58.11
2019-04-04T16:23:44.298Z,57.94
2019-04-04T16:26:13.954Z,58.56
2019-04-04T16:28:43.811Z,58.69
2019-04-04T16:31:13.482Z,59.14
2019-04-04T16:33:43.158Z,58.78
2019-04-04T16:36:12.836Z,58.87
2019-04-04T16:38:42.531Z,59.30
2019-04-04T16:41:14.519Z,59.28
2019-04-04T16:43:43.912Z,58.68
2019-04-04T16:46:14.739Z,58.82
2019-04-04T16:48:44.615Z,59.07
2019-04-04T16:51:14.752Z,58.73
2019-04-04T16:53:44.567Z,59.71
2019-04-04T16:56:14.264Z,60.10
2019-04-04T16:58:44.421Z,60.16
2019-04-04T17:01:15.260Z,60.43
2019-04-04T17:03:45.080Z,60.96
2019-04-04T17:06:15.144Z,61.97
2019-04-04T17:08:44.885Z,61.66
2019-04-04T17:11:14.681Z,62.38
2019-04-04T17:13:44.377Z,63.10
2019-04-04T17:16:14.220Z,63.04
2019-04-04T17:18:43.987Z,63.23
2019-04-04T17:21:14.661Z,63.40
2019-04-04T17:23:45.461Z,63.90
2019-04-04T17:26:15.163Z,64.27
2019-04-04T17:28:45.127Z,64.70
2019-04-04T17:31:15.723Z,65.06
2019-04-04T17:33:47.000Z,65.33
2019-04-04T17:36:20.297Z,65.30
2019-04-04T17:38:48.405Z,65.82
2019-04-04T17:41:18.212Z,66.34
2019-04-04T17:43:48.331Z,66.45
2019-04-04T17:46:18.959Z,66.60
2019-04-04T17:48:48.822Z,67.02
2019-04-04T17:51:19.121Z,67.24
2019-04-04T17:53:52.060Z,67.56
2019-04-04T17:56:21.214Z,67.89
2019-04-04T17:58:51.027Z,68.37
2019-04-04T18:01:20.967Z,68.53
2019-04-04T18:03:50.727Z,68.93
2019-04-04T18:06:20.643Z,69.27
2019-04-04T18:08:51.104Z,69.32
2019-04-04T18:11:20.864Z,69.67
2019-04-04T18:13:51.834Z,69.65
2019-04-04T18:16:21.908Z,69.90
2019-04-04T18:18:51.912Z,70.24
2019-04-04T18:21:22.220Z,70.51
2019-04-04T18:23:52.635Z,70.87
2019-04-04T18:26:22.913Z,70.99
2019-04-04T18:28:52.608Z,71.11
2019-04-04T18:31:22.683Z,71.22
2019-04-04T18:33:52.717Z,71.38
2019-04-04T18:36:23.200Z,71.69
2019-04-04T18:38:53.108Z,71.78
2019-04-04T18:41:23.282Z,71.80
2019-04-04T18:43:53.267Z,71.77
2019-04-04T18:46:23.233Z,71.95
2019-04-04T18:48:53.153Z,72.23
2019-04-04T18:51:23.570Z,72.35
2019-04-04T18:53:54.044Z,72.28
2019-04-04T18:56:24.304Z,72.13
2019-04-04T18:58:54.288Z,72.01
2019-04-04T19:01:24.456Z,72.07
2019-04-04T19:03:54.299Z,72.04
2019-04-04T19:06:25.996Z,72.08
2019-04-04T19:08:55.755Z,72.32
2019-04-04T19:11:25.862Z,72.57
2019-04-04T19:13:55.724Z,72.60
2019-04-04T19:16:25.931Z,72.60
2019-04-04T19:18:55.944Z,72.74
2019-04-04T19:21:26.082Z,72.70
2019-04-04T19:23:56.088Z,72.73
2019-04-04T19:26:26.138Z,72.66
2019-04-04T19:28:56.042Z,72.76
2019-04-04T19:31:26.098Z,72.86
2019-04-04T19:33:57.122Z,72.79
2019-04-04T19:36:26.988Z,72.81
2019-04-04T19:38:57.833Z,72.77
2019-04-04T19:41:27.725Z,72.95
2019-04-04T19:44:03.463Z,73.12
2019-04-04T19:46:45.658Z,73.45
2019-04-04T19:49:16.816Z,73.53
2019-04-04T20:01:35.665Z,74.50
2019-04-04T20:04:06.167Z,73.84
2019-04-04T20:06:35.933Z,74.18
2019-04-04T20:09:07.333Z,74.36
2019-04-04T20:11:37.403Z,74.58
2019-04-04T20:14:07.488Z,74.53
2019-04-04T20:16:37.848Z,74.53
2019-04-04T20:19:07.801Z,74.57
2019-04-04T20:21:37.470Z,74.82
2019-04-04T20:24:07.340Z,74.94
2019-04-04T20:26:37.681Z,75.31
2019-04-04T20:29:07.432Z,75.43
2019-04-04T20:31:37.960Z,75.60
2019-04-04T20:34:07.889Z,75.87
2019-04-04T20:36:38.190Z,76.13
2019-04-04T20:39:09.321Z,76.11
2019-04-04T20:41:39.272Z,76.08
2019-04-04T20:44:09.054Z,76.13
2019-04-04T20:46:39.056Z,76.15
2019-04-04T20:49:08.791Z,76.35
2019-04-04T20:51:38.712Z,76.06
2019-04-04T20:54:08.489Z,76.38
2019-04-04T20:56:38.393Z,76.24
2019-04-04T20:59:08.245Z,76.48
2019-04-04T21:01:39.019Z,76.28
2019-04-04T21:04:08.777Z,76.38
2019-04-04T21:06:38.586Z,76.51
2019-04-04T21:09:08.999Z,76.61
2019-04-04T21:11:38.932Z,76.63
2019-04-04T21:14:08.975Z,76.73
2019-04-04T21:16:39.022Z,76.82
2019-04-04T21:19:09.836Z,76.73
2019-04-04T21:21:39.621Z,76.57
2019-04-04T21:24:09.433Z,76.45
2019-04-04T21:26:39.149Z,76.30
2019-04-04T21:29:08.885Z,76.33
2019-04-04T21:31:38.771Z,76.22
2019-04-04T21:34:08.654Z,76.65
2019-04-04T21:36:38.396Z,76.78
2019-04-04T21:39:08.891Z,76.56
2019-04-04T21:41:38.890Z,76.67
2019-04-04T21:44:09.464Z,76.70
2019-04-04T21:46:39.411Z,76.78
2019-04-04T21:49:09.318Z,76.91
2019-04-04T21:51:39.134Z,76.85
2019-04-04T21:54:09.024Z,76.08
2019-04-04T21:56:39.134Z,76.55
2019-04-04T21:59:09.064Z,76.90
2019-04-04T22:01:39.334Z,77.66
2019-04-04T22:04:09.247Z,78.02
2019-04-04T22:06:39.001Z,78.21
2019-04-04T22:09:11.693Z,78.48
2019-04-04T22:11:41.771Z,78.50
2019-04-04T22:14:21.149Z,78.24
2019-04-04T22:16:43.246Z,78.03
2019-04-04T22:19:13.185Z,78.25
2019-04-04T22:21:43.203Z,78.39
2019-04-04T22:24:12.943Z,78.42
2019-04-04T22:26:42.720Z,78.41
2019-04-04T22:29:12.693Z,78.60
2019-04-04T22:31:42.647Z,78.78
2019-04-04T22:34:12.565Z,78.81
2019-04-04T22:36:42.431Z,78.82
2019-04-04T22:39:12.332Z,78.67
2019-04-04T22:41:42.304Z,78.50
2019-04-04T22:44:12.181Z,78.25
2019-04-04T22:46:42.248Z,78.55
2019-04-04T22:49:12.237Z,78.95
2019-04-04T22:51:43.016Z,78.90
2019-04-04T22:54:12.906Z,79.09
2019-04-04T22:56:42.725Z,79.33
2019-04-04T22:59:12.714Z,79.55
2019-04-04T23:01:42.607Z,79.37
2019-04-04T23:04:12.436Z,79.65
2019-04-04T23:06:42.340Z,79.88
2019-04-04T23:09:12.141Z,80.10
2019-04-04T23:11:41.927Z,79.85
2019-04-04T23:14:11.761Z,79.80
2019-04-04T23:16:41.823Z,79.65
2019-04-04T23:19:11.548Z,79.93
2019-04-04T23:21:41.603Z,80.15
2019-04-04T23:24:11.490Z,80.26
2019-04-04T23:26:41.701Z,80.61
2019-04-04T23:29:11.439Z,80.63
2019-04-04T23:31:41.459Z,80.38
2019-04-04T23:34:11.268Z,80.04
2019-04-04T23:36:41.152Z,79.65
2019-04-04T23:39:10.981Z,79.38
2019-04-04T23:41:40.702Z,79.38
2019-04-04T23:44:10.505Z,79.61
2019-04-04T23:46:40.334Z,79.70
2019-04-04T23:49:10.059Z,79.74
2019-04-04T23:51:41.011Z,79.63
2019-04-04T23:54:10.883Z,79.16
2019-04-04T23:58:53.561Z,79.09
